Time;durP1;ratioP1;P1;durP2;ratioP2;P2;SDS_P1;SDS_P2;PMS_P1;PMS_P2;Temp;Humidity;BMP_temperature;BMP_pressure;BME280_temperature;BME280_humidity;BME280_pressure;Samples;Min_cycle;Max_cycle;Signal;HPM_P1;HPM_P2
2023/04/24 00:01:36;;;;;;;17.73;3.87;;;;;;;16.88;nan;101437.63;6141537;23;20411;-87
2023/04/24 00:04:04;;;;;;;18.63;3.40;;;;;;;16.86;nan;101431.47;6141745;23;20486;-88
2023/04/24 00:06:33;;;;;;;23.30;3.97;;;;;;;16.88;nan;101440.38;6142095;23;20407;-88
2023/04/24 00:09:01;;;;;;;16.83;3.30;;;;;;;16.88;nan;101438.47;6166366;23;20407;-88
2023/04/24 00:11:30;;;;;;;15.97;3.67;;;;;;;16.87;nan;101446.97;6141949;23;20407;-88
2023/04/24 00:13:59;;;;;;;14.73;3.20;;;;;;;16.84;nan;101436.34;6166182;23;20414;-88
2023/04/24 00:16:27;;;;;;;17.33;3.00;;;;;;;16.84;nan;101441.88;6166251;23;20450;-88
2023/04/24 00:18:55;;;;;;;23.10;4.90;;;;;;;16.82;nan;101428.28;6190875;23;20403;-88
2023/04/24 00:21:25;;;;;;;26.90;3.83;;;;;;;16.78;nan;101428.94;6141581;23;20474;-88
2023/04/24 00:23:53;;;;;;;17.50;4.07;;;;;;;16.76;nan;101428.31;6142539;23;20498;-88
2023/04/24 00:26:20;;;;;;;14.60;3.63;;;;;;;16.69;nan;101413.69;6165578;23;20542;-88
2023/04/24 00:29:01;;;;;;;24.27;4.17;;;;;;;16.73;nan;101414.97;6141972;23;20407;-88
2023/04/24 00:31:40;;;;;;;21.17;5.00;;;;;;;16.78;nan;101417.91;6190979;23;20388;-88
2023/04/24 00:34:25;;;;;;;25.37;4.83;;;;;;;16.76;nan;101414.50;6176072;23;20403;-88
2023/04/24 00:37:02;;;;;;;16.63;4.37;;;;;;;16.74;nan;101406.44;6149744;23;20446;-88
2023/04/24 00:39:38;;;;;;;26.63;3.80;;;;;;;16.73;nan;101406.69;6169986;23;20411;-89
2023/04/24 00:42:08;;;;;;;21.87;3.90;;;;;;;16.70;nan;101413.50;6146049;23;20410;-88
2023/04/24 00:44:39;;;;;;;20.53;3.83;;;;;;;16.67;nan;101413.91;6170205;23;20794;-87
2023/04/24 00:47:16;;;;;;;19.20;3.73;;;;;;;16.62;nan;101393.50;6144899;23;20411;-88
2023/04/24 00:49:45;;;;;;;21.27;4.97;;;;;;;16.63;nan;101400.72;6167978;23;20418;-88
2023/04/24 00:52:17;;;;;;;17.97;3.30;;;;;;;16.52;nan;101378.28;6189374;23;20407;-88
2023/04/24 00:55:05;;;;;;;17.23;3.60;;;;;;;16.53;nan;101385.50;6143462;23;20395;-88
2023/04/24 00:57:37;;;;;;;18.10;4.20;;;;;;;16.54;nan;101387.19;6216550;23;20403;-88
2023/04/24 01:00:10;;;;;;;23.27;4.20;;;;;;;16.55;nan;101391.63;6189781;23;20418;-88
2023/04/24 01:02:51;;;;;;;19.83;3.57;;;;;;;16.43;nan;101374.03;6167272;23;20404;-87
2023/04/24 01:05:20;;;;;;;14.57;2.90;;;;;;;16.56;nan;101400.75;6165776;23;20771;-88
2023/04/24 01:07:49;;;;;;;14.50;3.83;;;;;;;16.55;nan;101394.38;6141512;23;20407;-92
2023/04/24 01:10:33;;;;;;;13.20;4.00;;;;;;;16.61;nan;101397.34;6141640;23;20791;-93
2023/04/24 01:13:01;;;;;;;10.77;2.67;;;;;;;16.55;nan;101383.34;6166477;23;20410;-92
2023/04/24 01:15:31;;;;;;;11.93;3.03;;;;;;;16.53;nan;101374.44;6141875;23;20442;-92
2023/04/24 01:18:01;;;;;;;15.07;2.87;;;;;;;16.52;nan;101377.44;6143550;23;20407;-92
2023/04/24 01:20:36;;;;;;;16.73;2.67;;;;;;;16.53;nan;101368.94;6142209;23;20418;-91
2023/04/24 01:23:23;;;;;;;18.23;4.40;;;;;;;16.55;nan;101383.34;6142867;23;20407;-92
2023/04/24 01:26:19;;;;;;;15.30;3.23;;;;;;;16.52;nan;101371.91;6173769;23;20382;-92
2023/04/24 01:28:52;;;;;;;11.23;2.87;;;;;;;16.55;nan;101372.28;6167341;23;20452;-92
2023/04/24 01:31:23;;;;;;;15.00;3.40;;;;;;;16.55;nan;101368.69;6166488;23;20418;-92
2023/04/24 01:34:14;;;;;;;14.43;3.40;;;;;;;16.54;nan;101362.34;6166613;23;20407;-93
2023/04/24 01:36:42;;;;;;;11.00;3.10;;;;;;;16.51;nan;101368.31;6166205;23;20443;-92
2023/04/24 01:39:16;;;;;;;21.73;3.33;;;;;;;16.56;nan;101374.00;6165762;23;20414;-93
2023/04/24 01:42:11;;;;;;;16.93;2.90;;;;;;;16.55;nan;101376.97;6195291;23;20378;-93
2023/04/24 01:45:05;;;;;;;14.30;3.27;;;;;;;16.54;nan;101378.91;6167155;23;20443;-94
2023/04/24 01:47:39;;;;;;;22.83;3.10;;;;;;;16.52;nan;101369.16;6167108;23;20407;-92
2023/04/24 01:50:28;;;;;;;17.23;3.47;;;;;;;16.48;nan;101365.97;6166380;23;20985;-92
2023/04/24 01:53:00;;;;;;;17.73;2.93;;;;;;;16.46;nan;101357.06;6191170;23;20416;-92
2023/04/24 01:55:34;;;;;;;16.30;2.60;;;;;;;16.37;nan;101355.59;6142303;23;20418;-91
2023/04/24 01:58:11;;;;;;;12.27;3.20;;;;;;;16.38;nan;101364.72;6189924;23;20457;-93
2023/04/24 02:00:52;;;;;;;9.20;2.50;;;;;;;16.39;nan;101364.50;6167842;23;20434;-93
2023/04/24 02:03:50;;;;;;;14.77;2.80;;;;;;;16.38;nan;101368.31;6166634;23;20407;-91
2023/04/24 02:06:40;;;;;;;15.77;2.77;;;;;;;16.40;nan;101368.09;6163529;23;20420;-93
2023/04/24 02:09:25;;;;;;;11.27;2.50;;;;;;;16.39;nan;101356.22;6166394;23;20415;-92
2023/04/24 02:12:22;;;;;;;;;;;;;;;;;;;;;
2023/04/24 02:15:21;;;;;;;13.50;2.20;;;;;;;16.25;nan;101340.78;6197202;23;20407;-92
2023/04/24 02:18:06;;;;;;;13.57;2.70;;;;;;;16.30;nan;101357.53;6147261;23;20473;-92
2023/04/24 02:21:07;;;;;;;11.33;2.67;;;;;;;16.22;nan;101360.53;6171181;23;20711;-92
2023/04/24 02:24:12;;;;;;;15.17;2.90;;;;;;;16.28;nan;101367.94;6125117;23;20457;-93
2023/04/24 02:26:41;;;;;;;14.10;3.40;;;;;;;16.13;nan;101345.28;6165359;23;20422;-93
2023/04/24 02:29:11;;;;;;;13.87;2.87;;;;;;;16.21;nan;101365.19;6141033;23;20415;-92
2023/04/24 02:31:46;;;;;;;8.57;2.50;;;;;;;16.15;nan;101354.19;6141017;23;20501;-92
2023/04/24 02:34:26;;;;;;;11.17;2.70;;;;;;;16.21;nan;101365.19;6166224;23;20391;-92
2023/04/24 02:36:56;;;;;;;14.73;2.90;;;;;;;16.18;nan;101364.75;6142181;23;20446;-91
2023/04/24 02:39:37;;;;;;;11.17;3.37;;;;;;;16.17;nan;101363.91;6140969;23;21032;-91
2023/04/24 02:42:08;;;;;;;12.63;2.70;;;;;;;16.10;nan;101365.00;6141290;23;20414;-92
2023/04/24 02:45:21;;;;;;;13.63;2.80;;;;;;;16.10;nan;101365.88;6173534;23;20379;-91
2023/04/24 02:47:50;;;;;;;10.03;2.20;;;;;;;15.99;nan;101354.63;6190056;23;20411;-92
2023/04/24 02:50:26;;;;;;;13.00;2.30;;;;;;;16.00;nan;101356.31;6141823;23;20732;-92
2023/04/24 02:53:34;;;;;;;12.60;2.77;;;;;;;16.03;nan;101356.75;6143407;23;20468;-92
2023/04/24 02:56:04;;;;;;;10.47;2.50;;;;;;;15.93;nan;101338.97;6216754;23;20505;-92
2023/04/24 02:58:35;;;;;;;12.20;3.00;;;;;;;16.03;nan;101362.25;6143882;23;20434;-92
2023/04/24 03:01:03;;;;;;;8.13;2.43;;;;;;;15.88;nan;101331.31;6167377;23;20410;-91
2023/04/24 03:03:32;;;;;;;10.63;2.67;;;;;;;15.90;nan;101345.75;6143561;23;20408;-92
2023/04/24 03:06:26;;;;;;;9.83;2.27;;;;;;;16.02;nan;101365.22;6142982;23;20411;-92
2023/04/24 03:09:03;;;;;;;11.10;2.33;;;;;;;15.91;nan;101352.09;6168197;23;20866;-91
2023/04/24 03:11:34;;;;;;;10.77;2.30;;;;;;;15.82;nan;101338.53;6142736;23;20529;-91
2023/04/24 03:14:09;;;;;;;7.73;1.93;;;;;;;15.89;nan;101344.91;6143081;23;20411;-92
2023/04/24 03:16:41;;;;;;;8.27;2.00;;;;;;;15.96;nan;101347.66;6142911;23;20430;-92
2023/04/24 03:19:09;;;;;;;10.07;2.13;;;;;;;15.81;nan;101325.81;6168023;23;20904;-91
2023/04/24 03:21:48;;;;;;;11.10;2.43;;;;;;;15.84;nan;101335.56;6143263;23;20449;-91
2023/04/24 03:24:20;;;;;;;7.50;2.60;;;;;;;15.80;nan;101334.28;6144899;23;20410;-92
2023/04/24 03:27:01;;;;;;;13.40;2.90;;;;;;;15.75;nan;101331.34;6143280;23;20583;-92
2023/04/24 03:29:31;;;;;;;7.47;1.90;;;;;;;15.66;nan;101322.44;6143352;23;20403;-92
2023/04/24 03:32:32;;;;;;;6.30;2.10;;;;;;;15.76;nan;101355.94;6143168;23;20407;-92
2023/04/24 03:35:24;;;;;;;11.80;2.10;;;;;;;15.73;nan;101358.28;6168128;23;20793;-92
2023/04/24 03:37:54;;;;;;;10.57;2.30;;;;;;;15.69;nan;101352.34;6137423;23;20440;-92
2023/04/24 03:40:43;;;;;;;10.93;2.00;;;;;;;15.66;nan;101347.25;6115702;23;20413;-93
2023/04/24 03:43:20;;;;;;;10.73;3.10;;;;;;;15.62;nan;101342.34;6113256;23;20403;-92
2023/04/24 03:46:05;;;;;;;8.07;2.70;;;;;;;15.66;nan;101350.00;6139197;23;20416;-92
2023/04/24 03:48:40;;;;;;;9.63;2.47;;;;;;;15.55;nan;101345.09;6137555;23;20408;-92
2023/04/24 03:51:21;;;;;;;14.10;1.70;;;;;;;15.42;nan;101323.88;6113864;23;20476;-92
2023/04/24 03:53:59;;;;;;;10.70;2.10;;;;;;;15.42;nan;101320.28;6113753;23;20470;-91
2023/04/24 03:56:36;;;;;;;12.70;2.50;;;;;;;15.34;nan;101315.84;6113214;23;20831;-92
2023/04/24 03:59:37;;;;;;;9.13;1.77;;;;;;;15.45;nan;101322.63;6113227;23;20987;-92
2023/04/24 04:02:51;;;;;;;5.23;1.83;;;;;;;15.35;nan;101320.31;6161346;23;20415;-93
2023/04/24 04:05:30;;;;;;;9.70;3.37;;;;;;;15.35;nan;101324.97;6162891;23;20528;-92
2023/04/24 04:08:10;;;;;;;8.20;2.50;;;;;;;15.37;nan;101323.69;6137184;23;20411;-91
2023/04/24 04:10:42;;;;;;;7.20;2.07;;;;;;;15.40;nan;101336.16;6113369;23;20459;-91
2023/04/24 04:13:22;;;;;;;8.90;2.20;;;;;;;15.25;nan;101316.25;6137311;23;20413;-92
2023/04/24 04:15:50;;;;;;;12.60;2.83;;;;;;;15.18;nan;101314.38;6137634;23;20407;-92
2023/04/24 04:18:27;;;;;;;12.37;2.80;;;;;;;15.20;nan;101317.72;6113383;23;20392;-91
2023/04/24 04:21:30;;;;;;;10.43;2.00;;;;;;;15.24;nan;101334.69;6137519;23;20479;-92
2023/04/24 04:23:59;;;;;;;9.10;2.67;;;;;;;15.12;nan;101326.19;6161361;23;20392;-91
2023/04/24 04:26:41;;;;;;;6.87;2.13;;;;;;;15.13;nan;101327.06;6113843;23;20467;-91
2023/04/24 04:29:43;;;;;;;16.37;2.60;;;;;;;15.17;nan;101333.84;6113747;23;20418;-92
2023/04/24 04:32:22;;;;;;;6.67;2.00;;;;;;;15.09;nan;101328.53;6141002;23;20408;-91
2023/04/24 04:35:00;;;;;;;9.57;2.03;;;;;;;15.08;nan;101338.69;6114101;23;20418;-92
2023/04/24 04:38:26;;;;;;;5.47;2.00;;;;;;;15.00;nan;101338.91;6138509;23;20501;-92
2023/04/24 04:41:02;;;;;;;7.67;1.90;;;;;;;14.90;nan;101337.59;6214904;23;20893;-92
2023/04/24 04:43:34;;;;;;;12.87;2.70;;;;;;;14.86;nan;101335.25;6143442;23;20413;-91
2023/04/24 04:46:05;;;;;;;7.23;1.53;;;;;;;14.86;nan;101342.66;6166747;23;20411;-91
2023/04/24 04:48:40;;;;;;;6.73;2.10;;;;;;;14.69;nan;101331.16;6165820;23;20469;-92
2023/04/24 04:51:14;;;;;;;8.70;2.13;;;;;;;14.73;nan;101343.47;6145920;23;20419;-92
2023/04/24 04:53:55;;;;;;;5.33;1.97;;;;;;;14.64;nan;101338.34;6146902;23;20406;-91
2023/04/24 04:56:29;;;;;;;10.63;2.07;;;;;;;14.53;nan;101328.78;6142051;23;20457;-92
2023/04/24 04:59:06;;;;;;;8.87;1.90;;;;;;;14.41;nan;101320.28;6142498;23;20403;-91
2023/04/24 05:02:05;;;;;;;6.93;1.70;;;;;;;14.51;nan;101340.00;6166644;23;20486;-91
2023/04/24 05:08:00;;;;;;;13.63;2.67;;;;;;;14.36;nan;101333.75;6216108;23;20423;-91
2023/04/24 05:10:56;;;;;;;6.97;2.43;;;;;;;14.35;nan;101345.81;6166352;23;20411;-90
2023/04/24 05:13:36;;;;;;;9.03;2.10;;;;;;;14.25;nan;101326.06;6166200;23;20402;-92
2023/04/24 05:17:00;;;;;;;10.80;2.60;;;;;;;14.30;nan;101336.47;6143537;23;20402;-93
2023/04/24 05:19:54;;;;;;;10.07;2.40;;;;;;;14.15;nan;101325.63;6162352;23;20518;-92
2023/04/24 05:31:04;;;;;;;11.03;2.60;;;;;;;14.09;nan;101346.50;6067628;23;20383;-93
2023/04/24 05:34:40;;;;;;;5.60;2.03;;;;;;;13.99;nan;101367.16;6067011;23;20887;-92
2023/04/24 05:37:20;;;;;;;6.67;2.20;;;;;;;13.89;nan;101367.50;6064933;23;20451;-92
2023/04/24 05:40:30;;;;;;;9.73;2.13;;;;;;;13.88;nan;101374.06;6029951;23;20451;-92
2023/04/24 05:43:05;;;;;;;12.23;2.03;;;;;;;13.88;nan;101379.56;6048391;23;20450;-92
2023/04/24 06:00:42;;;;;;;6.83;2.10;;;;;;;13.78;nan;101388.16;6092638;23;20878;-93
2023/04/24 06:04:05;;;;;;;5.47;1.60;;;;;;;13.80;nan;101388.81;6090717;23;21008;-92
2023/04/24 06:11:11;;;;;;;4.90;2.00;;;;;;;13.93;nan;101398.19;6155038;23;20465;-93
2023/04/24 06:14:26;;;;;;;3.33;1.73;;;;;;;13.92;nan;101391.00;6134522;23;20401;-92
2023/04/24 06:17:16;;;;;;;5.40;1.80;;;;;;;13.98;nan;101410.28;6084540;23;20437;-92
2023/04/24 06:19:58;;;;;;;7.60;2.20;;;;;;;13.89;nan;101392.25;6107334;23;20780;-92
2023/04/24 06:26:29;;;;;;;8.67;2.00;;;;;;;13.95;nan;101405.19;6186457;23;20422;-92
2023/04/24 06:44:43;;;;;;;8.63;2.13;;;;;;;14.51;nan;101419.75;6095096;23;20740;-91
2023/04/24 06:47:44;;;;;;;12.47;2.57;;;;;;;14.62;nan;101417.50;6074871;23;20472;-92
2023/04/24 08:05:39;;;;;;;9.40;2.17;;;;;;;17.60;nan;101453.81;6215962;23;20363;-87
2023/04/24 08:08:08;;;;;;;16.67;2.50;;;;;;;17.70;nan;101453.38;6166389;23;20478;-88
2023/04/24 08:10:38;;;;;;;7.50;1.80;;;;;;;17.78;nan;101441.16;6164723;23;20403;-88
2023/04/24 08:13:06;;;;;;;7.03;1.70;;;;;;;17.91;nan;101454.88;6190331;23;20478;-87
2023/04/24 08:15:35;;;;;;;7.10;1.90;;;;;;;17.97;nan;101447.63;6141855;23;21024;-91
2023/04/24 14:37:57;;;;;;;9.83;2.73;;;;;;;28.39;nan;101281.41;6121598;23;20449;-88
2023/04/24 14:40:28;;;;;;;8.00;2.43;;;;;;;28.41;nan;101279.13;6128861;23;20420;-88
2023/04/24 14:43:40;;;;;;;10.47;2.30;;;;;;;28.41;nan;101274.34;6133688;23;20774;-88
2023/04/24 15:05:28;;;;;;;9.00;2.20;;;;;;;28.20;nan;101256.03;6157636;23;20451;-88
2023/04/24 15:08:08;;;;;;;12.13;2.13;;;;;;;28.26;nan;101268.91;6157032;23;20408;-90
2023/04/24 15:10:37;;;;;;;9.60;2.47;;;;;;;28.13;nan;101256.38;6131172;23;20412;-87
2023/04/24 15:13:06;;;;;;;7.20;1.70;;;;;;;28.15;nan;101256.91;6131053;23;20805;-88
2023/04/24 15:15:36;;;;;;;7.30;2.13;;;;;;;28.22;nan;101267.84;6157558;23;20449;-87
2023/04/24 15:18:05;;;;;;;6.13;2.33;;;;;;;28.18;nan;101266.72;6131788;23;20829;-87
2023/04/24 15:20:41;;;;;;;10.90;2.77;;;;;;;28.14;nan;101260.84;6132114;23;20419;-87
2023/04/24 16:14:47;;;;;;;2.93;1.20;;;;;;;26.93;nan;101287.16;6187024;23;20400;-87
2023/04/24 16:28:42;;;;;;;3.20;1.30;;;;;;;26.68;nan;101269.34;6186835;23;20427;-87
2023/04/24 16:31:10;;;;;;;9.63;1.40;;;;;;;26.78;nan;101269.28;6113116;23;20490;-86
2023/04/24 16:53:37;;;;;;;4.47;1.70;;;;;;;26.65;nan;101280.28;6186600;23;20360;-87
2023/04/24 16:56:05;;;;;;;10.10;2.10;;;;;;;26.70;nan;101283.09;6160292;23;21360;-86
2023/04/24 17:10:27;;;;;;;6.43;2.30;;;;;;;26.67;nan;101300.47;6197320;22;20483;-86
2023/04/24 17:12:58;;;;;;;8.97;2.17;;;;;;;26.56;nan;101288.44;6160272;23;20483;-87
2023/04/24 17:15:29;;;;;;;7.77;2.47;;;;;;;26.43;nan;101289.09;6113709;23;20408;-87
2023/04/24 17:18:19;;;;;;;13.00;1.83;;;;;;;26.49;nan;101283.19;6135705;23;20526;-87
2023/04/24 17:20:47;;;;;;;6.03;1.73;;;;;;;26.23;nan;101277.91;6186291;23;20415;-87
2023/04/24 17:23:14;;;;;;;8.40;2.07;;;;;;;26.20;nan;101272.88;6135778;23;20420;-87
2023/04/24 17:25:45;;;;;;;10.23;2.30;;;;;;;26.09;nan;101289.72;6135833;23;20408;-87
2023/04/24 18:39:34;;;;;;;7.80;2.20;;;;;;;22.72;nan;101326.50;6228945;22;20435;-86
2023/04/24 20:03:05;;;;;;;4.80;1.50;;;;;;;20.52;nan;101361.13;6181483;23;20486;-86
2023/04/24 20:05:36;;;;;;;6.63;1.43;;;;;;;20.46;nan;101364.88;6161449;23;20418;-86
2023/04/24 20:08:48;;;;;;;5.10;1.57;;;;;;;20.47;nan;101372.13;6123542;23;20774;-86
2023/04/24 20:11:19;;;;;;;12.57;2.40;;;;;;;20.45;nan;101368.72;6186750;23;20408;-86
2023/04/24 20:13:49;;;;;;;5.90;1.27;;;;;;;20.33;nan;101368.72;6112902;23;20415;-86
2023/04/24 20:16:18;;;;;;;7.90;1.40;;;;;;;20.40;nan;101388.06;6019911;23;20433;-86
2023/04/24 20:18:47;;;;;;;10.37;2.03;;;;;;;20.30;nan;101380.31;6019338;23;20603;-85
2023/04/24 20:21:15;;;;;;;7.87;1.60;;;;;;;20.33;nan;101395.66;6043345;23;20499;-86
2023/04/24 20:23:42;;;;;;;9.63;1.70;;;;;;;20.34;nan;101394.56;6019691;23;20438;-86
2023/04/24 20:26:10;;;;;;;7.60;1.70;;;;;;;20.34;nan;101391.78;6019671;23;20411;-85
2023/04/24 20:28:40;;;;;;;8.10;1.13;;;;;;;20.33;nan;101403.97;5995866;23;20873;-87
2023/04/24 20:31:08;;;;;;;8.43;1.60;;;;;;;20.30;nan;101393.34;6042326;23;20502;-86
2023/04/24 20:33:40;;;;;;;7.93;1.83;;;;;;;20.28;nan;101392.75;6019860;23;20412;-86
2023/04/24 20:36:09;;;;;;;6.67;1.20;;;;;;;20.27;nan;101393.84;6020721;23;20416;-86
2023/04/24 20:38:45;;;;;;;6.27;1.30;;;;;;;20.26;nan;101408.78;6043078;23;20563;-86
2023/04/24 20:41:57;;;;;;;7.57;2.00;;;;;;;20.27;nan;101413.28;6108782;23;20495;-85
2023/04/24 21:44:14;;;;;;;2.93;0.87;;;;;;;20.17;nan;101438.88;6156307;23;20424;-86
2023/04/24 21:51:22;;;;;;;;;;;;;;;;;;;;;
2023/04/24 22:24:28;;;;;;;8.27;2.17;;;;;;;19.77;nan;101449.78;6066037;23;20437;-85
2023/04/24 22:27:02;;;;;;;5.60;1.33;;;;;;;19.67;nan;101432.84;6109763;23;21002;-86
2023/04/24 22:34:54;;;;;;;11.83;1.77;;;;;;;19.78;nan;101450.63;6155946;23;20841;-85
2023/04/24 22:37:27;;;;;;;15.33;3.03;;;;;;;19.70;nan;101435.16;6129285;23;20432;-85
2023/04/24 22:40:15;;;;;;;18.53;2.20;;;;;;;19.67;nan;101439.25;6080836;23;20500;-85
2023/04/24 22:42:51;;;;;;;8.93;2.27;;;;;;;19.66;nan;101436.72;6133500;23;20437;-86
2023/04/24 22:45:24;;;;;;;10.43;1.57;;;;;;;19.69;nan;101452.03;6108911;23;20409;-85
2023/04/24 22:48:04;;;;;;;8.30;1.97;;;;;;;19.70;nan;101454.56;6081903;23;20528;-88
2023/04/24 22:50:33;;;;;;;5.57;1.60;;;;;;;19.65;nan;101452.50;5991380;23;20568;-88
2023/04/24 22:57:20;;;;;;;10.83;2.20;;;;;;;19.63;nan;101448.28;6038749;23;20429;-89
2023/04/24 22:59:58;;;;;;;6.33;1.60;;;;;;;19.54;nan;101433.91;5950232;24;20479;-85
2023/04/24 23:02:35;;;;;;;10.97;2.37;;;;;;;19.57;nan;101438.16;5928907;24;20419;-90
2023/04/24 23:05:05;;;;;;;6.63;1.93;;;;;;;19.56;nan;101437.31;5953013;24;20419;-89
